Time;durP1;ratioP1;P1;durP2;ratioP2;P2;SDS_P1;SDS_P2;PMS_P1;PMS_P2;Temp;Humidity;BMP_temperature;BMP_pressure;BME280_temperature;BME280_humidity;BME280_pressure;Samples;Min_cycle;Max_cycle;Signal;HPM_P1;HPM_P2
2021/12/09 00:01:52;;;;;;;2.85;1.65;;;16.10;65.50;;;;;;10579892;28;20027;-57
2021/12/09 00:06:54;;;;;;;3.92;1.83;;;16.00;65.40;;;;;;10579915;28;20363;-53
2021/12/09 00:11:55;;;;;;;3.50;1.70;;;16.00;65.50;;;;;;10579566;28;20111;-54
2021/12/09 00:17:06;;;;;;;3.42;1.92;;;16.00;65.50;;;;;;10544823;28;20515;-53
2021/12/09 00:22:11;;;;;;;2.47;1.52;;;16.00;65.50;;;;;;10561524;28;20028;-54
2021/12/09 00:27:11;;;;;;;2.15;1.48;;;16.00;65.40;;;;;;10561664;28;20132;-54
2021/12/09 00:32:12;;;;;;;2.78;1.35;;;15.90;65.40;;;;;;10578893;28;20036;-54
2021/12/09 00:37:29;;;;;;;2.67;1.55;;;15.90;65.40;;;;;;10547587;28;20028;-53
2021/12/09 00:42:30;;;;;;;2.22;1.30;;;15.90;65.30;;;;;;10555055;28;20028;-54
2021/12/09 00:47:31;;;;;;;2.80;1.85;;;15.90;65.50;;;;;;10569465;28;20090;-53
2021/12/09 00:52:32;;;;;;;2.55;1.40;;;15.90;65.40;;;;;;10569254;28;20026;-51
2021/12/09 00:57:34;;;;;;;3.30;1.88;;;15.90;65.40;;;;;;10587476;28;20084;-53
2021/12/09 01:02:34;;;;;;;3.25;1.50;;;15.80;65.30;;;;;;10545316;28;20063;-54
2021/12/09 01:07:37;;;;;;;4.15;1.70;;;15.80;65.30;;;;;;10551435;28;20130;-52
2021/12/09 01:12:38;;;;;;;2.40;1.42;;;15.80;65.30;;;;;;10586571;28;20049;-54
2021/12/09 01:17:39;;;;;;;3.67;1.58;;;15.80;65.30;;;;;;10553979;28;20040;-54
2021/12/09 01:22:42;;;;;;;5.07;1.30;;;15.80;65.40;;;;;;10567906;28;20035;-54
2021/12/09 01:27:46;;;;;;;2.65;1.52;;;15.70;65.20;;;;;;10568397;28;20023;-55
2021/12/09 01:32:52;;;;;;;2.65;1.52;;;15.70;65.40;;;;;;10585588;28;20024;-54
2021/12/09 01:37:57;;;;;;;2.65;1.42;;;15.80;65.40;;;;;;10567836;28;20029;-53
2021/12/09 01:42:58;;;;;;;2.58;1.40;;;15.70;65.10;;;;;;10567913;28;20502;-55
2021/12/09 01:47:59;;;;;;;2.30;1.45;;;15.70;65.20;;;;;;10567011;28;20046;-53
2021/12/09 01:53:01;;;;;;;5.03;1.65;;;15.70;65.20;;;;;;10549711;28;20032;-51
2021/12/09 01:58:02;;;;;;;2.80;1.48;;;15.80;65.00;;;;;;10567014;28;20034;-52
2021/12/09 02:03:05;;;;;;;2.63;1.33;;;15.90;64.80;;;;;;10584567;28;20036;-53
2021/12/09 02:08:06;;;;;;;2.20;1.35;;;15.80;64.70;;;;;;10566724;28;20024;-52
2021/12/09 02:13:07;;;;;;;2.75;1.33;;;15.90;64.90;;;;;;10555499;28;20028;-53
2021/12/09 02:18:11;;;;;;;2.33;1.65;;;15.90;64.80;;;;;;10566192;28;20471;-52
2021/12/09 02:23:16;;;;;;;2.20;1.17;;;15.90;64.70;;;;;;10584236;28;20078;-53
2021/12/09 02:28:17;;;;;;;2.38;1.27;;;15.90;64.60;;;;;;10566346;28;20031;-53
2021/12/09 02:33:18;;;;;;;3.30;1.30;;;15.80;64.60;;;;;;10565609;28;20406;-53
2021/12/09 02:38:18;;;;;;;1.88;1.02;;;15.80;64.80;;;;;;10565344;28;20094;-52
2021/12/09 02:43:29;;;;;;;2.65;1.45;;;15.80;64.80;;;;;;10583506;28;20032;-53
2021/12/09 02:48:30;;;;;;;2.45;1.20;;;15.80;64.80;;;;;;10565038;28;20051;-54
2021/12/09 02:53:32;;;;;;;2.22;1.10;;;15.80;64.60;;;;;;10583018;28;20092;-54
2021/12/09 02:58:32;;;;;;;2.10;1.20;;;15.90;64.50;;;;;;10564503;28;20099;-52
2021/12/09 03:03:34;;;;;;;1.83;1.08;;;15.90;64.30;;;;;;10563228;28;20034;-53
2021/12/09 03:08:36;;;;;;;2.33;1.42;;;15.90;64.20;;;;;;10564254;28;20019;-51
2021/12/09 03:13:39;;;;;;;2.83;1.55;;;15.90;64.20;;;;;;10582349;28;20471;-51
2021/12/09 03:18:45;;;;;;;1.63;1.17;;;15.90;64.30;;;;;;10547093;28;20110;-53
2021/12/09 03:23:46;;;;;;;2.88;1.33;;;15.80;64.40;;;;;;10563966;28;20107;-54
2021/12/09 03:28:47;;;;;;;2.33;1.05;;;15.80;64.50;;;;;;10563451;28;20074;-54
2021/12/09 03:33:48;;;;;;;1.85;1.20;;;15.80;64.40;;;;;;10563380;28;20116;-54
2021/12/09 03:38:49;;;;;;;2.03;1.30;;;15.80;64.30;;;;;;10533731;28;20015;-54
2021/12/09 03:43:50;;;;;;;2.25;1.40;;;15.80;64.30;;;;;;10580765;28;20028;-54
2021/12/09 03:48:51;;;;;;;2.22;1.23;;;15.80;64.20;;;;;;10562853;28;20028;-54
2021/12/09 03:53:53;;;;;;;1.83;1.02;;;15.90;64.00;;;;;;10562485;28;20388;-52
2021/12/09 03:58:54;;;;;;;2.65;1.15;;;15.90;64.00;;;;;;10562373;28;20525;-54
2021/12/09 04:03:55;;;;;;;2.10;1.13;;;15.90;64.00;;;;;;10580340;28;20030;-52
2021/12/09 04:08:57;;;;;;;3.25;2.13;;;15.80;64.10;;;;;;10580198;28;20376;-50
2021/12/09 04:13:58;;;;;;;1.83;1.10;;;15.80;64.20;;;;;;10561901;28;20071;-53
2021/12/09 04:18:59;;;;;;;3.67;1.48;;;15.80;64.20;;;;;;10561726;28;20057;-54
2021/12/09 04:24:07;;;;;;;2.03;1.13;;;15.90;64.00;;;;;;10561990;28;20043;-54
2021/12/09 04:29:10;;;;;;;2.45;1.13;;;15.90;63.90;;;;;;10579658;28;20039;-53
2021/12/09 04:34:11;;;;;;;3.63;1.48;;;15.80;63.90;;;;;;10548298;28;20028;-53
2021/12/09 04:39:12;;;;;;;1.80;1.10;;;15.80;64.10;;;;;;10561609;28;20020;-53
2021/12/09 04:44:12;;;;;;;1.92;1.20;;;15.80;64.10;;;;;;10561005;28;20135;-53
2021/12/09 04:49:13;;;;;;;2.13;1.17;;;15.90;63.90;;;;;;10544511;28;20089;-54
2021/12/09 04:54:14;;;;;;;2.38;1.23;;;15.90;63.70;;;;;;10561094;28;20039;-52
2021/12/09 04:59:16;;;;;;;2.65;1.42;;;15.90;63.60;;;;;;10560897;28;20055;-54
2021/12/09 05:04:17;;;;;;;1.50;1.00;;;15.90;63.50;;;;;;10544026;28;20402;-54
2021/12/09 05:09:18;;;;;;;2.15;1.25;;;15.90;63.60;;;;;;10578931;28;20366;-53
2021/12/09 05:14:22;;;;;;;1.50;1.13;;;15.90;63.60;;;;;;10560939;28;20028;-53
2021/12/09 05:19:22;;;;;;;2.65;1.13;;;15.90;63.50;;;;;;10544003;28;20028;-54
2021/12/09 05:24:23;;;;;;;2.08;1.23;;;15.90;63.60;;;;;;10560418;28;20402;-53
2021/12/09 05:29:30;;;;;;;1.83;1.20;;;15.90;63.50;;;;;;10585035;28;20111;-54
2021/12/09 05:34:31;;;;;;;1.58;1.10;;;15.90;63.30;;;;;;10584608;28;20054;-53
2021/12/09 05:39:32;;;;;;;1.73;0.95;;;15.90;63.40;;;;;;10537185;28;20502;-51
2021/12/09 05:44:34;;;;;;;1.75;1.08;;;16.10;62.90;;;;;;10567779;28;20187;-52
2021/12/09 05:49:39;;;;;;;2.42;1.10;;;16.30;62.30;;;;;;10566948;28;20162;-52
2021/12/09 05:54:41;;;;;;;1.83;0.80;;;16.40;61.90;;;;;;10564279;28;20221;-52
2021/12/09 05:59:44;;;;;;;3.80;0.98;;;16.50;62.00;;;;;;10566087;28;20427;-54
2021/12/09 06:04:45;;;;;;;2.50;1.10;;;16.80;61.70;;;;;;10561840;28;20039;-55
2021/12/09 06:09:46;;;;;;;5.78;1.30;;;16.80;62.00;;;;;;10581258;28;20110;-52
2021/12/09 06:14:47;;;;;;;3.05;1.52;;;16.90;62.80;;;;;;10581804;28;20483;-52
2021/12/09 06:19:48;;;;;;;2.42;1.20;;;16.90;63.00;;;;;;10566335;28;20023;-53
2021/12/09 06:24:48;;;;;;;4.75;1.20;;;17.10;62.70;;;;;;10565811;28;20060;-49
2021/12/09 06:29:49;;;;;;;2.78;1.17;;;17.10;63.20;;;;;;10583982;28;20051;-52
2021/12/09 06:34:50;;;;;;;5.22;1.40;;;17.20;63.00;;;;;;10583688;28;20032;-53
2021/12/09 06:39:50;;;;;;;2.78;1.35;;;17.20;62.60;;;;;;10546087;28;20050;-54
2021/12/09 06:44:51;;;;;;;4.00;1.30;;;17.20;63.10;;;;;;10564737;28;20054;-50
2021/12/09 06:49:52;;;;;;;7.07;1.50;;;17.30;63.10;;;;;;10581797;28;20556;-54
2021/12/09 06:54:52;;;;;;;9.93;1.60;;;17.10;62.70;;;;;;10564641;28;20076;-53
2021/12/09 06:59:53;;;;;;;6.75;1.80;;;17.20;62.60;;;;;;10564639;28;20035;-50
2021/12/09 07:04:54;;;;;;;12.95;1.90;;;17.10;62.40;;;;;;10563545;28;20038;-53
2021/12/09 07:09:55;;;;;;;10.05;1.92;;;17.10;62.20;;;;;;10533563;28;20115;-54
2021/12/09 07:14:55;;;;;;;3.78;1.40;;;17.20;61.80;;;;;;10546683;28;20077;-47
2021/12/09 07:19:56;;;;;;;12.40;2.25;;;17.20;61.70;;;;;;10578279;28;20027;-53
2021/12/09 07:24:57;;;;;;;10.70;2.20;;;17.00;62.00;;;;;;10557570;28;20016;-51
2021/12/09 07:29:59;;;;;;;5.45;1.73;;;17.20;61.30;;;;;;10573960;28;20119;-53
2021/12/09 07:35:01;;;;;;;7.55;1.33;;;17.30;61.00;;;;;;10556823;28;20112;-53
2021/12/09 07:40:05;;;;;;;5.43;1.42;;;17.20;61.20;;;;;;10559142;28;20046;-53
2021/12/09 07:45:09;;;;;;;5.38;1.52;;;17.50;60.40;;;;;;10560735;28;20130;-52
2021/12/09 07:50:14;;;;;;;6.40;1.95;;;17.60;60.30;;;;;;10578371;28;20077;-53
2021/12/09 07:55:17;;;;;;;3.97;0.95;;;17.60;60.30;;;;;;10577352;28;20050;-52
2021/12/09 08:00:25;;;;;;;5.00;1.42;;;17.60;60.10;;;;;;10539829;28;20062;-52
2021/12/09 08:05:31;;;;;;;4.28;1.25;;;17.60;60.10;;;;;;10562126;28;20020;-53
2021/12/09 08:10:33;;;;;;;2.70;0.93;;;17.60;60.10;;;;;;10558599;28;20039;-52
2021/12/09 08:15:38;;;;;;;4.43;1.25;;;17.60;60.20;;;;;;10560277;28;20027;-49
2021/12/09 08:20:39;;;;;;;4.18;1.35;;;17.60;60.10;;;;;;10561805;28;20031;-52
2021/12/09 08:25:41;;;;;;;2.75;1.20;;;17.70;59.90;;;;;;10561078;28;20050;-50
2021/12/09 08:30:42;;;;;;;3.72;1.50;;;17.60;60.00;;;;;;10560677;28;20479;-52
2021/12/09 08:35:43;;;;;;;3.85;1.52;;;17.70;59.80;;;;;;10544598;28;20411;-48
2021/12/09 08:40:45;;;;;;;2.05;1.00;;;17.60;60.00;;;;;;10559421;28;20036;-53
2021/12/09 08:45:48;;;;;;;2.35;1.02;;;17.70;59.80;;;;;;10542347;28;20047;-53
2021/12/09 08:50:49;;;;;;;3.63;1.00;;;17.70;59.80;;;;;;10559310;28;20087;-53
2021/12/09 08:55:50;;;;;;;2.92;0.93;;;17.70;59.80;;;;;;10577810;28;20371;-51
2021/12/09 09:00:53;;;;;;;3.13;0.75;;;17.80;59.60;;;;;;10560121;28;20578;-52
2021/12/09 09:05:54;;;;;;;2.50;1.20;;;17.80;59.60;;;;;;10585422;28;20028;-53
2021/12/09 09:10:55;;;;;;;1.90;0.90;;;17.80;59.60;;;;;;10585688;28;20028;-53
2021/12/09 09:15:56;;;;;;;3.50;1.50;;;17.80;59.60;;;;;;10585084;28;20020;-53
2021/12/09 09:20:57;;;;;;;4.15;0.80;;;17.80;59.50;;;;;;10584978;28;20407;-54
2021/12/09 09:25:58;;;;;;;3.33;1.25;;;17.80;59.60;;;;;;10586102;28;20030;-49
2021/12/09 09:31:00;;;;;;;2.72;1.20;;;17.80;59.60;;;;;;10550935;28;20023;-53
2021/12/09 09:36:01;;;;;;;2.90;0.98;;;17.80;59.60;;;;;;10567025;28;20072;-53
2021/12/09 09:41:09;;;;;;;1.75;0.80;;;17.90;59.30;;;;;;10567351;28;20474;-50
2021/12/09 09:46:19;;;;;;;2.17;0.82;;;17.80;59.40;;;;;;10567461;28;20440;-52
2021/12/09 09:51:21;;;;;;;;;;;17.90;59.30;;;;;;10567874;28;20027;-54
2021/12/09 09:56:24;;;;;;;1.85;0.80;;;18.00;59.10;;;;;;10584125;28;19916;-54
2021/12/09 10:01:28;;;;;;;3.63;0.80;;;17.90;59.30;;;;;;10549512;28;20012;-49
2021/12/09 10:06:29;;;;;;;2.42;1.05;;;18.00;59.30;;;;;;10566468;28;20024;-52
2021/12/09 10:11:30;;;;;;;2.30;0.88;;;17.90;59.30;;;;;;10565780;28;20765;-52
2021/12/09 10:16:32;;;;;;;2.17;0.70;;;18.00;59.30;;;;;;10566073;28;20479;-53
2021/12/09 10:21:34;;;;;;;2.53;0.88;;;17.90;59.30;;;;;;10583856;28;20034;-54
2021/12/09 10:26:37;;;;;;;1.30;0.70;;;18.00;59.30;;;;;;10566180;28;20077;-53
2021/12/09 10:31:59;;;;;;;2.55;1.08;;;18.00;59.90;;;;;;10582068;28;20077;-50
2021/12/09 10:37:26;;;;;;;2.67;0.85;;;18.00;59.10;;;;;;10547210;28;20027;-51
2021/12/09 10:42:34;;;;;;;2.92;0.80;;;18.00;59.20;;;;;;10581738;28;20059;-52
2021/12/09 10:52:49;;;;;;;1.75;1.02;;;18.00;59.10;;;;;;10564120;28;20035;-53
2021/12/09 10:58:10;;;;;;;1.70;0.60;;;18.00;59.30;;;;;;10564833;28;20028;-53
2021/12/09 11:03:15;;;;;;;2.15;0.80;;;18.00;59.00;;;;;;10564171;28;20080;-52
2021/12/09 11:08:45;;;;;;;1.95;0.90;;;18.00;59.20;;;;;;10564036;28;20062;-52
2021/12/09 11:13:55;;;;;;;1.50;0.85;;;18.00;59.00;;;;;;10580539;28;20032;-49
2021/12/09 11:19:14;;;;;;;;;;;18.00;59.10;;;;;;10580584;28;20022;-49
2021/12/09 11:24:19;;;;;;;2.35;0.60;;;18.00;58.90;;;;;;10562422;28;19998;-53
2021/12/09 11:29:38;;;;;;;1.30;0.70;;;18.00;59.10;;;;;;10579814;28;20032;-53
2021/12/09 11:35:05;;;;;;;1.92;0.73;;;18.10;58.90;;;;;;10563329;28;20523;-50
2021/12/09 11:40:06;;;;;;;1.65;0.70;;;18.00;59.00;;;;;;10561658;28;20051;-53
2021/12/09 11:45:10;;;;;;;1.38;0.85;;;18.10;58.90;;;;;;10579281;28;20060;-48
2021/12/09 11:50:16;;;;;;;1.30;0.70;;;18.00;59.00;;;;;;10579009;28;20031;-51
2021/12/09 11:55:20;;;;;;;3.60;1.27;;;18.10;58.70;;;;;;10561062;28;20028;-52
2021/12/09 12:07:03;;;;;;;1.85;0.70;;;18.10;58.80;;;;;;10551639;28;20028;-51
2021/12/09 12:29:27;;;;;;;1.25;0.68;;;18.10;58.80;;;;;;10578024;28;20031;-51
2021/12/09 12:40:15;;;;;;;2.47;1.15;;;18.10;58.80;;;;;;10588607;28;20043;-53
2021/12/09 12:50:39;;;;;;;1.67;1.02;;;18.10;59.00;;;;;;10587770;28;20407;-54
2021/12/09 12:55:43;;;;;;;2.33;0.75;;;18.10;59.20;;;;;;10587091;28;20015;-54
2021/12/09 13:00:48;;;;;;;2.17;0.93;;;18.10;58.90;;;;;;10569597;28;20076;-50
2021/12/09 13:16:43;;;;;;;2.95;0.85;;;18.10;58.70;;;;;;10564375;28;20051;-53
2021/12/09 13:21:57;;;;;;;2.67;0.80;;;18.20;58.70;;;;;;10580836;28;20384;-52
2021/12/09 13:27:11;;;;;;;1.58;0.95;;;18.10;58.60;;;;;;10585686;28;20483;-52
2021/12/09 13:48:30;;;;;;;1.33;0.60;;;18.20;58.50;;;;;;10583401;28;20043;-51
2021/12/09 13:58:53;;;;;;;1.95;0.85;;;18.20;58.50;;;;;;10569853;28;20032;-52
2021/12/09 14:03:53;;;;;;;1.40;0.52;;;18.20;58.50;;;;;;10578590;28;20024;-50
2021/12/09 14:08:56;;;;;;;2.03;0.70;;;18.20;58.60;;;;;;10547727;28;20038;-52
2021/12/09 14:14:08;;;;;;;2.10;0.60;;;18.20;58.50;;;;;;10564436;28;20027;-52
2021/12/09 14:24:23;;;;;;;1.75;0.57;;;18.20;58.50;;;;;;10582436;28;20118;-51
2021/12/09 14:29:27;;;;;;;2.83;0.90;;;18.30;58.20;;;;;;10564039;28;20039;-52
2021/12/09 14:34:36;;;;;;;1.77;0.70;;;18.20;58.70;;;;;;10563811;28;20473;-50
2021/12/09 14:39:36;;;;;;;2.13;0.98;;;18.30;58.40;;;;;;10564846;28;20070;-51
2021/12/09 14:44:40;;;;;;;2.17;1.35;;;18.20;58.50;;;;;;10563342;28;20032;-50
2021/12/09 14:49:46;;;;;;;2.05;0.70;;;18.20;58.50;;;;;;10563570;28;20396;-53
2021/12/09 14:54:46;;;;;;;1.33;0.70;;;18.20;58.50;;;;;;10564364;28;20111;-52
2021/12/09 14:59:49;;;;;;;1.75;0.77;;;18.30;58.40;;;;;;10581170;28;20114;-53
2021/12/09 15:05:00;;;;;;;2.00;0.80;;;18.20;58.50;;;;;;10577059;28;20055;-52
2021/12/09 15:10:21;;;;;;;1.80;0.57;;;18.30;58.40;;;;;;10557771;28;20066;-53
2021/12/09 15:15:26;;;;;;;1.35;1.20;;;18.30;58.30;;;;;;10564719;28;20039;-51
2021/12/09 15:20:54;;;;;;;1.20;0.70;;;18.20;58.50;;;;;;10580957;28;20051;-53
2021/12/09 15:25:55;;;;;;;1.95;1.08;;;18.20;58.40;;;;;;10545980;28;20029;-52
2021/12/09 15:31:04;;;;;;;1.83;0.75;;;18.30;58.40;;;;;;10561314;28;20035;-53
2021/12/09 15:36:06;;;;;;;2.28;0.65;;;18.30;59.00;;;;;;10544333;28;20024;-51
2021/12/09 15:41:09;;;;;;;1.98;0.80;;;18.30;58.30;;;;;;10561032;28;20089;-53
2021/12/09 15:46:10;;;;;;;0.80;0.57;;;18.30;58.30;;;;;;10561031;28;20082;-53
2021/12/09 15:51:23;;;;;;;0.90;0.50;;;18.30;58.20;;;;;;10578893;28;20518;-52
2021/12/09 15:56:39;;;;;;;1.48;0.93;;;18.30;58.20;;;;;;10561410;28;20027;-54
2021/12/09 16:01:44;;;;;;;1.58;0.88;;;18.30;58.30;;;;;;10578457;28;20448;-53
2021/12/09 16:06:45;;;;;;;1.77;0.95;;;18.30;58.20;;;;;;10578263;28;20028;-52
2021/12/09 16:11:46;;;;;;;1.08;0.60;;;18.30;58.20;;;;;;10559195;28;20042;-54
2021/12/09 16:16:51;;;;;;;2.03;0.70;;;18.40;58.10;;;;;;10577330;28;20024;-53
2021/12/09 16:22:17;;;;;;;1.17;0.50;;;18.20;58.40;;;;;;10560905;28;20015;-52
2021/12/09 16:27:18;;;;;;;1.30;0.60;;;18.30;58.20;;;;;;10577717;28;20380;-54
2021/12/09 16:32:20;;;;;;;1.25;0.57;;;18.30;58.30;;;;;;10559912;28;20020;-53
2021/12/09 16:37:22;;;;;;;3.60;0.75;;;18.30;58.20;;;;;;10557031;28;20478;-55
2021/12/09 16:42:22;;;;;;;2.45;1.10;;;18.20;58.80;;;;;;10558694;28;20145;-54
2021/12/09 16:47:23;;;;;;;7.00;2.53;;;18.30;58.50;;;;;;10560505;28;20073;-56
2021/12/09 16:52:24;;;;;;;3.67;2.50;;;18.40;58.10;;;;;;10560298;28;20039;-54
2021/12/09 17:02:28;;;;;;;8.05;2.97;;;18.10;57.80;;;;;;10561152;28;20378;-54
2021/12/09 17:07:28;;;;;;;5.97;2.60;;;17.90;57.90;;;;;;10552255;28;20089;-56
2021/12/09 17:12:29;;;;;;;9.88;2.55;;;17.80;57.40;;;;;;10578756;28;20088;-56
2021/12/09 17:17:30;;;;;;;11.77;4.60;;;17.90;57.30;;;;;;10560417;28;20463;-57
2021/12/09 17:22:31;;;;;;;8.82;3.80;;;18.00;61.00;;;;;;10578021;28;20031;-57
2021/12/09 17:27:32;;;;;;;10.52;3.28;;;18.00;60.90;;;;;;10568191;28;20032;-57
2021/12/09 17:32:40;;;;;;;6.53;2.78;;;18.30;60.60;;;;;;10585223;28;20020;-56
2021/12/09 17:37:43;;;;;;;12.45;2.97;;;18.30;59.80;;;;;;10547406;28;20184;-57
2021/12/09 17:42:44;;;;;;;11.63;3.08;;;18.20;61.10;;;;;;10564116;28;20023;-56
2021/12/09 17:47:51;;;;;;;11.43;2.63;;;18.20;61.00;;;;;;10566053;28;20403;-57
2021/12/09 17:52:59;;;;;;;13.48;2.47;;;18.40;60.90;;;;;;10564002;28;20121;-57
2021/12/09 17:58:00;;;;;;;8.35;2.05;;;18.30;61.10;;;;;;10563586;28;20028;-57
2021/12/09 18:03:01;;;;;;;12.93;2.30;;;18.40;59.80;;;;;;10565401;28;20023;-55
2021/12/09 18:08:07;;;;;;;12.43;2.47;;;18.30;60.30;;;;;;10565219;28;20110;-56
2021/12/09 18:13:09;;;;;;;6.18;2.47;;;18.30;59.80;;;;;;10584233;28;20028;-55
2021/12/09 18:18:10;;;;;;;9.48;2.42;;;18.30;59.70;;;;;;10566163;28;20464;-56
2021/12/09 18:23:11;;;;;;;5.57;2.60;;;18.30;59.60;;;;;;10549426;28;20116;-55
2021/12/09 18:28:12;;;;;;;10.70;2.65;;;18.30;59.60;;;;;;10565671;28;20520;-55
2021/12/09 18:33:13;;;;;;;6.72;2.90;;;18.20;59.90;;;;;;10565064;28;20059;-56
2021/12/09 18:38:16;;;;;;;9.18;2.30;;;18.10;59.80;;;;;;10583660;28;20051;-54
2021/12/09 18:43:18;;;;;;;7.00;2.22;;;18.20;59.70;;;;;;10582642;28;20028;-56
2021/12/09 18:48:20;;;;;;;8.90;2.25;;;18.40;59.50;;;;;;10582316;28;20105;-56
2021/12/09 18:53:22;;;;;;;7.30;2.67;;;18.40;59.70;;;;;;10562837;28;20529;-56
2021/12/09 18:58:24;;;;;;;5.60;2.20;;;18.40;59.50;;;;;;10581964;28;20031;-55
2021/12/09 19:03:27;;;;;;;5.80;2.30;;;18.40;59.60;;;;;;10582253;28;20111;-54
2021/12/09 19:08:28;;;;;;;12.15;3.10;;;18.40;59.50;;;;;;10563750;28;20088;-56
2021/12/09 19:13:30;;;;;;;6.65;2.33;;;18.40;59.80;;;;;;10545271;28;20092;-56
2021/12/09 19:18:32;;;;;;;3.95;1.55;;;18.40;59.70;;;;;;10546561;28;20034;-55
2021/12/09 19:23:33;;;;;;;5.70;2.55;;;18.30;59.70;;;;;;10563162;28;20042;-56
2021/12/09 19:28:40;;;;;;;5.45;1.80;;;18.40;59.60;;;;;;10562109;28;20034;-56
2021/12/09 19:33:42;;;;;;;4.93;1.67;;;18.40;59.70;;;;;;10581670;28;20050;-56
2021/12/09 19:38:45;;;;;;;3.35;1.77;;;18.40;59.40;;;;;;10551894;28;20036;-54
2021/12/09 19:43:46;;;;;;;5.65;2.00;;;18.40;59.60;;;;;;10563247;28;20027;-56
2021/12/09 19:48:49;;;;;;;4.78;1.95;;;18.40;59.60;;;;;;10561856;28;20040;-57
2021/12/09 19:53:51;;;;;;;5.30;1.95;;;18.40;59.60;;;;;;10580811;28;20032;-57
2021/12/09 19:58:52;;;;;;;4.15;2.05;;;18.30;60.30;;;;;;10561030;28;20522;-55
2021/12/09 20:03:53;;;;;;;5.55;2.05;;;18.30;60.20;;;;;;10561656;28;20382;-55
2021/12/09 20:08:56;;;;;;;5.38;1.80;;;18.40;60.20;;;;;;10562073;28;20024;-54
2021/12/09 20:13:56;;;;;;;3.72;1.70;;;18.20;60.50;;;;;;10561305;28;20023;-54
2021/12/09 20:18:58;;;;;;;6.60;2.17;;;18.00;60.80;;;;;;10561830;28;20471;-56
2021/12/09 20:24:02;;;;;;;5.80;1.98;;;17.90;61.40;;;;;;10561021;28;20026;-55
2021/12/09 20:29:05;;;;;;;6.18;2.50;;;17.80;61.80;;;;;;10560850;28;20076;-56
2021/12/09 20:34:06;;;;;;;5.63;2.15;;;17.60;62.30;;;;;;10560669;28;20036;-55
2021/12/09 20:39:07;;;;;;;5.03;1.90;;;17.40;62.60;;;;;;10557092;28;20034;-54
2021/12/09 20:44:07;;;;;;;4.13;1.67;;;17.30;62.90;;;;;;10561039;28;20122;-55
2021/12/09 20:49:12;;;;;;;4.00;1.77;;;17.20;63.20;;;;;;10560269;28;20044;-56
2021/12/09 20:54:13;;;;;;;5.32;2.25;;;17.00;63.40;;;;;;10561202;28;20039;-55
2021/12/09 20:59:15;;;;;;;5.82;2.03;;;17.00;63.60;;;;;;10566184;28;20062;-57
2021/12/09 21:04:16;;;;;;;4.13;2.05;;;16.90;63.60;;;;;;10569316;28;20039;-57
2021/12/09 21:09:17;;;;;;;4.00;1.90;;;16.90;63.70;;;;;;10569181;28;20123;-56
2021/12/09 21:14:20;;;;;;;2.85;1.67;;;16.80;63.90;;;;;;10587054;28;20104;-56
2021/12/09 21:19:21;;;;;;;5.72;1.85;;;16.70;63.80;;;;;;10569143;28;20428;-56
2021/12/09 21:24:22;;;;;;;6.88;2.17;;;16.70;63.90;;;;;;10586640;28;20067;-56
2021/12/09 21:29:24;;;;;;;4.18;2.03;;;16.70;64.00;;;;;;10568244;28;20033;-57
2021/12/09 21:34:30;;;;;;;3.78;1.67;;;16.60;64.00;;;;;;10568131;28;20071;-57
2021/12/09 21:39:31;;;;;;;4.22;1.88;;;16.50;64.00;;;;;;10586328;28;20068;-56
2021/12/09 21:44:32;;;;;;;3.92;1.73;;;16.50;64.10;;;;;;10585858;28;20380;-57
2021/12/09 21:49:33;;;;;;;2.38;1.52;;;16.50;64.20;;;;;;10585734;28;20563;-57
2021/12/09 21:54:34;;;;;;;4.22;2.22;;;16.50;64.30;;;;;;10551818;28;20114;-57
2021/12/09 21:59:36;;;;;;;4.43;2.15;;;16.40;64.30;;;;;;10567231;28;20023;-57
2021/12/09 22:04:36;;;;;;;4.03;2.20;;;16.40;64.30;;;;;;10566838;28;20122;-55
2021/12/09 22:09:38;;;;;;;6.82;2.17;;;16.30;64.30;;;;;;10559646;28;20379;-56
2021/12/09 22:14:40;;;;;;;4.45;1.80;;;16.30;64.40;;;;;;10566843;28;20573;-55
2021/12/09 22:19:42;;;;;;;3.90;2.13;;;16.20;64.40;;;;;;10566784;28;20422;-56
2021/12/09 22:24:43;;;;;;;3.35;2.38;;;16.20;64.50;;;;;;10584418;28;20394;-55
2021/12/09 22:29:44;;;;;;;3.63;2.10;;;16.20;64.40;;;;;;10582853;28;20023;-56
2021/12/09 22:34:46;;;;;;;2.78;1.60;;;16.20;64.40;;;;;;10548816;28;20036;-57
2021/12/09 22:39:47;;;;;;;3.45;1.95;;;16.20;64.50;;;;;;10565679;28;20054;-56
2021/12/09 22:44:49;;;;;;;4.00;2.33;;;16.10;64.40;;;;;;10548644;28;20089;-56
2021/12/09 22:49:53;;;;;;;5.63;1.92;;;16.10;64.40;;;;;;10539660;28;20074;-56
2021/12/09 22:54:53;;;;;;;4.57;2.15;;;16.00;64.50;;;;;;10526088;28;20045;-57
2021/12/09 22:59:54;;;;;;;2.75;1.67;;;16.00;64.40;;;;;;10540667;28;20024;-55
2021/12/09 23:04:55;;;;;;;3.08;1.70;;;16.00;64.50;;;;;;10522361;28;20024;-55
2021/12/09 23:10:00;;;;;;;3.72;1.77;;;15.90;64.40;;;;;;10522543;28;20379;-56
2021/12/09 23:15:03;;;;;;;3.25;1.60;;;15.90;64.40;;;;;;10540157;28;20032;-56
2021/12/09 23:20:04;;;;;;;2.53;1.63;;;15.90;64.40;;;;;;10538128;28;20107;-56
2021/12/09 23:25:05;;;;;;;2.78;1.95;;;15.90;64.40;;;;;;10538556;28;20473;-56
2021/12/09 23:30:07;;;;;;;2.38;1.70;;;15.90;64.50;;;;;;10539630;28;20039;-54
2021/12/09 23:35:08;;;;;;;3.22;1.88;;;15.90;64.50;;;;;;10539252;28;20040;-56
2021/12/09 23:40:09;;;;;;;6.35;2.45;;;15.80;64.50;;;;;;10538069;28;20543;-56
2021/12/09 23:45:10;;;;;;;4.07;2.13;;;15.80;64.50;;;;;;10540254;28;20161;-56
2021/12/09 23:50:11;;;;;;;3.42;1.80;;;15.80;64.50;;;;;;10581054;28;20027;-55
2021/12/09 23:55:15;;;;;;;7.63;2.13;;;15.80;64.50;;;;;;10562937;28;20057;-56
